Time;durP1;ratioP1;P1;durP2;ratioP2;P2;SDS_P1;SDS_P2;PMS_P1;PMS_P2;Temp;Humidity;BMP_temperature;BMP_pressure;BME280_temperature;BME280_humidity;BME280_pressure;Samples;Min_cycle;Max_cycle;Signal;HPM_P1;HPM_P2
2021/11/18 00:01:51;;;;;;;15.77;3.77;;;;;;;-145.18;100.00;60484.78;5024738;28;20028;-76
2021/11/18 00:04:17;;;;;;;11.10;2.60;;;;;;;-145.18;100.00;60484.78;5025504;28;20064;-75
2021/11/18 00:06:44;;;;;;;12.37;3.43;;;;;;;-145.18;100.00;60484.78;5024703;28;20061;-75
2021/11/18 00:09:10;;;;;;;9.93;2.73;;;;;;;-145.18;100.00;60484.78;5025708;28;20091;-76
2021/11/18 00:11:35;;;;;;;16.53;3.83;;;;;;;-145.18;100.00;60484.78;5025778;28;20025;-75
2021/11/18 00:14:01;;;;;;;15.17;3.60;;;;;;;-145.18;100.00;60484.78;5025117;28;20029;-75
2021/11/18 00:16:26;;;;;;;19.57;4.63;;;;;;;-145.18;100.00;60484.78;5024712;28;20037;-75
2021/11/18 00:18:52;;;;;;;14.43;2.87;;;;;;;-145.18;100.00;60484.78;5024166;28;20521;-75
2021/11/18 00:21:30;;;;;;;8.23;3.37;;;;;;;-145.18;100.00;60484.78;5023938;28;20053;-75
2021/11/18 00:23:57;;;;;;;10.63;3.83;;;;;;;-145.18;100.00;60484.78;5019026;28;20031;-75
2021/11/18 00:26:25;;;;;;;9.97;3.10;;;;;;;-145.18;100.00;60484.78;5023575;28;20072;-75
2021/11/18 00:28:50;;;;;;;10.13;2.87;;;;;;;-145.18;100.00;60484.78;5024086;28;20047;-75
2021/11/18 00:31:20;;;;;;;14.93;3.37;;;;;;;-145.18;100.00;60484.78;5024177;28;20050;-75
2021/11/18 00:33:45;;;;;;;9.37;2.57;;;;;;;-145.18;100.00;60484.78;5024122;28;20670;-75
2021/11/18 00:36:13;;;;;;;14.93;3.13;;;;;;;-145.18;100.00;60484.78;5015638;28;20033;-75
2021/11/18 00:38:39;;;;;;;17.23;4.40;;;;;;;-145.18;100.00;60484.78;5023362;28;20021;-76
2021/11/18 00:41:08;;;;;;;19.33;4.60;;;;;;;-145.18;100.00;60484.78;5024120;28;20071;-75
2021/11/18 00:43:34;;;;;;;14.03;3.33;;;;;;;-145.18;100.00;60484.78;5023648;28;20025;-75
2021/11/18 00:45:59;;;;;;;8.37;2.90;;;;;;;-145.18;100.00;60484.78;5024300;28;20728;-76
2021/11/18 00:48:25;;;;;;;13.30;3.43;;;;;;;-145.18;100.00;60484.78;5023669;28;20429;-75
2021/11/18 00:50:57;;;;;;;20.23;4.67;;;;;;;-145.18;100.00;60484.78;5023535;28;20033;-75
2021/11/18 00:53:23;;;;;;;11.23;2.63;;;;;;;-145.18;100.00;60484.78;5024042;28;20021;-75
2021/11/18 00:55:49;;;;;;;17.37;3.33;;;;;;;-145.18;100.00;60484.78;5023233;28;20151;-75
2021/11/18 00:58:15;;;;;;;11.33;3.47;;;;;;;-145.18;100.00;60484.78;5023278;28;20017;-75
2021/11/18 01:00:43;;;;;;;16.30;3.37;;;;;;;-145.18;100.00;60484.78;5023376;28;20637;-75
2021/11/18 01:03:09;;;;;;;12.57;3.30;;;;;;;-145.18;100.00;60484.78;5023341;28;20087;-77
2021/11/18 01:05:39;;;;;;;13.47;3.47;;;;;;;-145.18;100.00;60484.78;5020603;28;20113;-75
2021/11/18 01:08:06;;;;;;;11.60;3.37;;;;;;;-145.18;100.00;60484.78;5020867;28;20057;-75
2021/11/18 01:10:36;;;;;;;14.23;3.63;;;;;;;-145.18;100.00;60484.78;5023717;28;20510;-75
2021/11/18 01:13:04;;;;;;;14.47;3.60;;;;;;;-145.18;100.00;60484.78;5023639;28;20063;-75
2021/11/18 01:15:32;;;;;;;14.50;4.07;;;;;;;-145.18;100.00;60484.78;5022944;28;20104;-75
2021/11/18 01:17:58;;;;;;;13.90;3.20;;;;;;;-145.18;100.00;60484.78;5014927;28;20056;-75
2021/11/18 01:20:24;;;;;;;11.70;3.53;;;;;;;-145.18;100.00;60484.78;5023280;28;20129;-75
2021/11/18 01:22:53;;;;;;;12.20;3.47;;;;;;;-145.18;100.00;60484.78;5023222;28;20148;-75
2021/11/18 01:25:19;;;;;;;18.87;4.30;;;;;;;-145.18;100.00;60484.78;5019836;28;20063;-75
2021/11/18 01:27:46;;;;;;;11.40;3.40;;;;;;;-145.18;100.00;60484.78;5022617;28;20053;-74
2021/11/18 01:30:18;;;;;;;15.87;3.27;;;;;;;-145.18;100.00;60484.78;5022776;28;20041;-75
2021/11/18 01:32:44;;;;;;;15.40;3.63;;;;;;;-145.18;100.00;60484.78;5023221;28;20505;-75
2021/11/18 01:35:10;;;;;;;10.70;3.03;;;;;;;-145.18;100.00;60484.78;5021597;28;20025;-75
2021/11/18 01:37:35;;;;;;;14.13;4.00;;;;;;;-145.18;100.00;60484.78;5023227;28;20021;-75
2021/11/18 01:40:01;;;;;;;13.93;3.50;;;;;;;-145.18;100.00;60484.78;5022530;28;20036;-75
2021/11/18 01:42:27;;;;;;;17.13;3.57;;;;;;;-145.18;100.00;60484.78;5023171;28;20025;-75
2021/11/18 01:44:53;;;;;;;10.70;3.50;;;;;;;-145.18;100.00;60484.78;5022756;28;20025;-75
2021/11/18 01:47:19;;;;;;;10.33;3.80;;;;;;;-145.18;100.00;60484.78;5022751;28;20045;-76
2021/11/18 01:49:47;;;;;;;12.87;3.43;;;;;;;-145.18;100.00;60484.78;5022349;28;20126;-76
2021/11/18 01:52:16;;;;;;;15.30;3.20;;;;;;;-145.18;100.00;60484.78;5023037;28;20068;-75
2021/11/18 01:54:44;;;;;;;14.13;3.50;;;;;;;-145.18;100.00;60484.78;5022805;28;20033;-75
2021/11/18 01:57:15;;;;;;;14.97;3.30;;;;;;;-145.18;100.00;60484.78;5022721;28;20028;-75
2021/11/18 01:59:44;;;;;;;14.73;4.60;;;;;;;-145.18;100.00;60484.78;5022260;28;20394;-75
2021/11/18 02:02:11;;;;;;;15.53;4.20;;;;;;;-145.18;100.00;60484.78;5023075;28;20033;-75
2021/11/18 02:04:50;;;;;;;14.23;3.20;;;;;;;-145.18;100.00;60484.78;5043979;23;20130;-70
2021/11/18 02:07:16;;;;;;;15.70;4.60;;;;;;;-145.18;100.00;60484.78;5036408;28;20108;-70
2021/11/18 02:09:45;;;;;;;9.97;3.37;;;;;;;-145.18;100.00;60484.78;5043450;28;20263;-70
2021/11/18 02:12:23;;;;;;;14.43;4.20;;;;;;;-145.18;100.00;60484.78;5039010;28;20276;-69
2021/11/18 02:14:50;;;;;;;15.10;4.20;;;;;;;-145.18;100.00;60484.78;5038961;28;20136;-70
2021/11/18 02:17:17;;;;;;;12.53;3.37;;;;;;;-145.18;100.00;60484.78;5039212;28;20025;-69
2021/11/18 02:19:49;;;;;;;15.37;4.30;;;;;;;-145.18;100.00;60484.78;5037602;28;20036;-69
2021/11/18 02:22:16;;;;;;;14.60;3.78;;;;;;;-145.18;100.00;60484.78;5039216;28;20071;-69
2021/11/18 02:24:52;;;;;;;6.93;3.00;;;;;;;-145.18;100.00;60484.78;5038252;28;20037;-69
2021/11/18 02:27:20;;;;;;;13.40;3.70;;;;;;;-145.18;100.00;60484.78;5038850;28;20484;-69
2021/11/18 02:29:48;;;;;;;12.27;3.23;;;;;;;-145.18;100.00;60484.78;5038399;28;20416;-69
2021/11/18 02:32:18;;;;;;;15.87;4.20;;;;;;;-145.18;100.00;60484.78;5037447;28;20028;-69
2021/11/18 02:34:53;;;;;;;8.43;3.37;;;;;;;-145.18;100.00;60484.78;5039150;28;20560;-69
2021/11/18 02:37:20;;;;;;;25.00;3.60;;;;;;;-145.18;100.00;60484.78;5039763;28;20562;-70
2021/11/18 02:39:45;;;;;;;14.90;3.87;;;;;;;-145.18;100.00;60484.78;5039208;28;20405;-70
2021/11/18 02:42:12;;;;;;;15.60;3.53;;;;;;;-145.18;100.00;60484.78;5038354;28;20184;-70
2021/11/18 02:44:38;;;;;;;11.97;3.40;;;;;;;-145.18;100.00;60484.78;5036297;28;20254;-70
2021/11/18 02:47:11;;;;;;;13.50;4.60;;;;;;;-145.18;100.00;60484.78;5041500;28;20037;-70
2021/11/18 02:49:45;;;;;;;11.33;3.90;;;;;;;-145.18;100.00;60484.78;5038120;28;20319;-70
2021/11/18 02:52:13;;;;;;;13.33;4.23;;;;;;;-145.18;100.00;60484.78;5033969;28;20374;-69
2021/11/18 02:54:39;;;;;;;11.57;4.17;;;;;;;-145.18;100.00;60484.78;5036300;28;20082;-69
2021/11/18 02:57:06;;;;;;;12.50;3.60;;;;;;;-145.18;100.00;60484.78;5037337;28;20028;-69
2021/11/18 02:59:32;;;;;;;13.00;3.30;;;;;;;-145.18;100.00;60484.78;5038082;28;20048;-69
2021/11/18 03:01:57;;;;;;;18.90;3.90;;;;;;;-145.18;100.00;60484.78;5038610;28;20048;-69
2021/11/18 03:04:23;;;;;;;13.00;4.43;;;;;;;-145.18;100.00;60484.78;5037647;28;20630;-69
2021/11/18 03:06:48;;;;;;;16.73;4.00;;;;;;;-145.18;100.00;60484.78;5039608;28;20021;-69
2021/11/18 03:09:13;;;;;;;18.13;4.43;;;;;;;-145.18;100.00;60484.78;5039623;28;20097;-69
2021/11/18 03:11:39;;;;;;;17.93;5.53;;;;;;;-145.18;100.00;60484.78;5038359;28;20047;-69
2021/11/18 03:14:05;;;;;;;13.33;3.90;;;;;;;-145.18;100.00;60484.78;5037712;28;20500;-69
2021/11/18 03:16:31;;;;;;;15.30;4.37;;;;;;;-145.18;100.00;60484.78;5038085;28;20284;-69
2021/11/18 03:18:56;;;;;;;16.20;4.60;;;;;;;-145.18;100.00;60484.78;5036988;28;20104;-69
2021/11/18 03:21:25;;;;;;;18.17;3.93;;;;;;;-145.18;100.00;60484.78;5036839;28;20032;-69
2021/11/18 03:23:52;;;;;;;22.23;4.53;;;;;;;-145.18;100.00;60484.78;5035427;28;20052;-69
2021/11/18 03:26:21;;;;;;;11.33;4.07;;;;;;;-145.18;100.00;60484.78;5037577;28;20032;-69
2021/11/18 03:28:46;;;;;;;17.97;4.53;;;;;;;-145.18;100.00;60484.78;5037953;28;20388;-69
2021/11/18 03:31:14;;;;;;;20.07;4.87;;;;;;;-145.18;100.00;60484.78;5037371;28;20035;-70
2021/11/18 03:33:44;;;;;;;17.60;3.90;;;;;;;-145.18;100.00;60484.78;5037542;28;20246;-70
2021/11/18 03:36:10;;;;;;;19.93;4.00;;;;;;;-145.18;100.00;60484.78;5031027;28;20026;-70
2021/11/18 03:38:36;;;;;;;15.50;4.43;;;;;;;-145.18;100.00;60484.78;5038114;28;20029;-69
2021/11/18 03:41:04;;;;;;;13.30;4.03;;;;;;;-145.18;100.00;60484.78;5037705;28;20622;-70
2021/11/18 03:43:36;;;;;;;13.13;4.10;;;;;;;-145.18;100.00;60484.78;5037012;28;20179;-69
2021/11/18 03:46:02;;;;;;;27.52;5.20;;;;;;;-145.18;100.00;60484.78;5035223;28;20032;-69
2021/11/18 03:48:30;;;;;;;18.67;4.10;;;;;;;-145.18;100.00;60484.78;5036741;28;20025;-70
2021/11/18 03:50:57;;;;;;;18.30;5.87;;;;;;;-145.18;100.00;60484.78;5016514;28;20044;-69
2021/11/18 03:53:23;;;;;;;22.40;5.17;;;;;;;-145.18;100.00;60484.78;5036991;28;20221;-70
2021/11/18 03:55:48;;;;;;;22.67;5.30;;;;;;;-145.18;100.00;60484.78;5037471;28;20017;-69
2021/11/18 03:58:14;;;;;;;16.20;4.47;;;;;;;-145.18;100.00;60484.78;5038600;28;20099;-70
2021/11/18 04:00:40;;;;;;;23.43;4.70;;;;;;;-145.18;100.00;60484.78;5037851;28;20021;-70
2021/11/18 04:03:09;;;;;;;16.60;4.13;;;;;;;-145.18;100.00;60484.78;5037486;28;20087;-70
2021/11/18 04:05:35;;;;;;;22.00;4.87;;;;;;;-145.18;100.00;60484.78;5036274;28;20041;-70
2021/11/18 04:08:00;;;;;;;14.30;5.23;;;;;;;-145.18;100.00;60484.78;5037327;28;20024;-71
2021/11/18 04:10:30;;;;;;;19.53;5.70;;;;;;;-145.18;100.00;60484.78;5039189;28;20029;-70
2021/11/18 04:12:56;;;;;;;15.37;4.90;;;;;;;-145.18;100.00;60484.78;5037026;28;20485;-70
2021/11/18 04:15:24;;;;;;;15.37;4.67;;;;;;;-145.18;100.00;60484.78;5036394;28;20436;-70
2021/11/18 04:17:50;;;;;;;22.13;6.10;;;;;;;-145.18;100.00;60484.78;5035894;28;20024;-70
2021/11/18 04:20:16;;;;;;;21.43;5.80;;;;;;;-145.18;100.00;60484.78;5036578;28;20029;-70
2021/11/18 04:22:42;;;;;;;19.93;5.60;;;;;;;-145.18;100.00;60484.78;5035958;28;20305;-70
2021/11/18 04:25:11;;;;;;;16.97;5.03;;;;;;;-145.18;100.00;60484.78;5036541;28;20090;-70
2021/11/18 04:27:37;;;;;;;21.80;6.63;;;;;;;-145.18;100.00;60484.78;5036232;28;20282;-70
2021/11/18 04:30:05;;;;;;;22.87;7.33;;;;;;;-145.18;100.00;60484.78;5037070;28;20430;-70
2021/11/18 04:32:30;;;;;;;16.97;6.30;;;;;;;-145.18;100.00;60484.78;5037936;28;20029;-70
2021/11/18 04:34:56;;;;;;;24.10;6.80;;;;;;;-145.18;100.00;60484.78;5040106;28;20131;-70
2021/11/18 04:37:30;;;;;;;21.07;6.27;;;;;;;-145.18;100.00;60484.78;5041194;28;20416;-70
2021/11/18 04:39:56;;;;;;;20.03;5.60;;;;;;;-145.18;100.00;60484.78;5037255;28;20153;-70
2021/11/18 04:42:23;;;;;;;28.67;7.07;;;;;;;-145.18;100.00;60484.78;5040599;28;20037;-70
2021/11/18 04:44:48;;;;;;;17.70;6.10;;;;;;;-145.18;100.00;60484.78;5040317;28;20144;-70
2021/11/18 04:47:14;;;;;;;19.13;5.73;;;;;;;-145.18;100.00;60484.78;5038682;28;20108;-70
2021/11/18 04:49:42;;;;;;;23.60;7.30;;;;;;;-145.18;100.00;60484.78;5040263;28;20233;-70
2021/11/18 04:52:08;;;;;;;26.07;6.63;;;;;;;-145.18;100.00;60484.78;5036447;28;20087;-70
2021/11/18 04:54:35;;;;;;;24.37;5.63;;;;;;;-145.18;100.00;60484.78;5040319;28;20108;-70
2021/11/18 04:57:01;;;;;;;22.50;7.00;;;;;;;-145.18;100.00;60484.78;5040301;28;20087;-70
2021/11/18 04:59:26;;;;;;;23.17;6.03;;;;;;;-145.18;100.00;60484.78;5040834;28;20117;-70
2021/11/18 05:01:52;;;;;;;29.50;6.97;;;;;;;-145.18;100.00;60484.78;5040497;28;20265;-70
2021/11/18 05:04:17;;;;;;;18.10;5.90;;;;;;;-145.18;100.00;60484.78;5040009;28;20048;-70
2021/11/18 05:06:43;;;;;;;21.70;6.40;;;;;;;-145.18;100.00;60484.78;5039651;28;20053;-70
2021/11/18 05:09:10;;;;;;;23.00;6.17;;;;;;;-145.18;100.00;60484.78;5040075;28;20017;-70
2021/11/18 05:11:35;;;;;;;26.30;6.77;;;;;;;-145.18;100.00;60484.78;5035964;28;20055;-70
2021/11/18 05:14:01;;;;;;;22.57;5.50;;;;;;;-145.18;100.00;60484.78;5037030;28;20048;-70
2021/11/18 05:16:27;;;;;;;23.23;6.97;;;;;;;-145.18;100.00;60484.78;5038165;28;20029;-70
2021/11/18 05:18:52;;;;;;;18.33;6.00;;;;;;;-145.18;100.00;60484.78;5038950;28;20185;-70
2021/11/18 05:21:22;;;;;;;27.97;7.70;;;;;;;-145.18;100.00;60484.78;5037519;28;20021;-70
2021/11/18 05:23:48;;;;;;;24.73;7.47;;;;;;;-145.18;100.00;60484.78;5039676;28;20362;-70
2021/11/18 05:26:16;;;;;;;24.33;6.90;;;;;;;-145.18;100.00;60484.78;5039856;28;20488;-70
2021/11/18 05:28:43;;;;;;;26.73;6.97;;;;;;;-145.18;100.00;60484.78;5039632;28;20429;-70
2021/11/18 05:31:10;;;;;;;21.97;6.97;;;;;;;-145.18;100.00;60484.78;5038166;28;20052;-70
2021/11/18 05:33:36;;;;;;;24.17;6.87;;;;;;;-145.18;100.00;60484.78;5039241;28;20028;-70
2021/11/18 05:36:02;;;;;;;31.63;7.17;;;;;;;-145.18;100.00;60484.78;5038684;28;20033;-70
2021/11/18 05:38:28;;;;;;;21.43;6.53;;;;;;;-145.18;100.00;60484.78;5039008;28;20048;-70
2021/11/18 05:40:54;;;;;;;20.77;6.83;;;;;;;-145.18;100.00;60484.78;5039539;28;20096;-70
2021/11/18 05:43:22;;;;;;;23.57;6.57;;;;;;;-145.18;100.00;60484.78;5038879;28;20195;-70
2021/11/18 05:45:47;;;;;;;25.50;7.07;;;;;;;-145.18;100.00;60484.78;5036933;28;20415;-70
2021/11/18 05:48:15;;;;;;;22.43;7.27;;;;;;;-145.18;100.00;60484.78;5037629;28;20198;-70
2021/11/18 05:50:49;;;;;;;21.27;6.97;;;;;;;-145.18;100.00;60484.78;5039676;28;20037;-70
2021/11/18 05:53:17;;;;;;;22.37;7.03;;;;;;;-145.18;100.00;60484.78;5037085;28;20021;-70
2021/11/18 05:55:42;;;;;;;19.33;7.43;;;;;;;-145.18;100.00;60484.78;5036660;28;20027;-70
2021/11/18 05:58:08;;;;;;;21.93;7.43;;;;;;;-145.18;100.00;60484.78;5039584;28;20021;-70
2021/11/18 06:00:34;;;;;;;20.57;6.53;;;;;;;-145.18;100.00;60484.78;5038914;28;20233;-70
2021/11/18 06:03:00;;;;;;;28.20;7.03;;;;;;;-145.18;100.00;60484.78;5030962;28;20037;-70
2021/11/18 06:05:30;;;;;;;23.90;7.03;;;;;;;-145.18;100.00;60484.78;5038353;28;20068;-70
2021/11/18 06:07:56;;;;;;;19.30;6.63;;;;;;;-145.18;100.00;60484.78;5038891;28;20160;-70
2021/11/18 06:10:24;;;;;;;22.83;7.13;;;;;;;-145.18;100.00;60484.78;5039196;28;20117;-70
2021/11/18 06:12:49;;;;;;;23.63;7.03;;;;;;;-145.18;100.00;60484.78;5039177;28;20043;-70
2021/11/18 06:15:15;;;;;;;20.30;6.53;;;;;;;-145.18;100.00;60484.78;5039214;28;20401;-70
2021/11/18 06:17:41;;;;;;;22.43;7.30;;;;;;;-145.18;100.00;60484.78;5030816;28;20023;-70
2021/11/18 06:20:09;;;;;;;34.87;7.70;;;;;;;-145.18;100.00;60484.78;5038189;28;20025;-70
2021/11/18 06:22:35;;;;;;;23.40;7.30;;;;;;;-145.18;100.00;60484.78;5038164;28;20076;-70
2021/11/18 06:25:01;;;;;;;24.10;6.83;;;;;;;-145.18;100.00;60484.78;5037932;28;20106;-70
2021/11/18 06:27:27;;;;;;;21.50;7.57;;;;;;;-145.18;100.00;60484.78;5038202;28;20028;-70
2021/11/18 06:29:53;;;;;;;28.60;6.77;;;;;;;-145.18;100.00;60484.78;5039162;28;20106;-70
2021/11/18 06:32:19;;;;;;;22.17;6.83;;;;;;;-145.18;100.00;60484.78;5037881;28;20308;-70
2021/11/18 06:34:45;;;;;;;22.67;7.63;;;;;;;-145.18;100.00;60484.78;5037280;28;20060;-70
2021/11/18 06:37:11;;;;;;;31.77;7.40;;;;;;;-145.18;100.00;60484.78;5038913;28;20091;-70
2021/11/18 06:39:38;;;;;;;25.53;7.50;;;;;;;-145.18;100.00;60484.78;5038682;28;20189;-70
2021/11/18 06:42:06;;;;;;;20.50;7.33;;;;;;;-145.18;100.00;60484.78;5037016;28;20515;-70
2021/11/18 06:44:33;;;;;;;23.63;6.93;;;;;;;-145.18;100.00;60484.78;5038863;28;20097;-70
2021/11/18 06:46:58;;;;;;;18.50;6.93;;;;;;;-145.18;100.00;60484.78;5034218;28;20090;-70
2021/11/18 06:49:24;;;;;;;25.23;7.57;;;;;;;-145.18;100.00;60484.78;5034626;28;20025;-70
2021/11/18 06:51:50;;;;;;;37.40;8.43;;;;;;;-145.18;100.00;60484.78;5034042;28;20135;-70
2021/11/18 06:54:17;;;;;;;23.40;7.00;;;;;;;-145.18;100.00;60484.78;5038823;28;20108;-70
2021/11/18 06:56:43;;;;;;;22.43;7.20;;;;;;;-145.18;100.00;60484.78;5033928;28;20025;-70
2021/11/18 06:59:08;;;;;;;24.00;7.73;;;;;;;-145.18;100.00;60484.78;5038251;28;20551;-70
2021/11/18 07:01:35;;;;;;;27.73;7.43;;;;;;;-145.18;100.00;60484.78;5024618;28;20060;-70
2021/11/18 07:04:00;;;;;;;25.33;7.57;;;;;;;-145.18;100.00;60484.78;5026434;28;20120;-70
2021/11/18 07:06:26;;;;;;;24.60;7.27;;;;;;;-145.18;100.00;60484.78;5036861;28;20112;-70
2021/11/18 07:08:53;;;;;;;29.70;9.23;;;;;;;-145.18;100.00;60484.78;5035320;28;20032;-70
2021/11/18 07:11:21;;;;;;;24.20;6.80;;;;;;;-145.18;100.00;60484.78;5034666;28;20025;-70
2021/11/18 07:13:47;;;;;;;21.90;6.90;;;;;;;-145.18;100.00;60484.78;5037518;28;20021;-70
2021/11/18 07:16:16;;;;;;;20.47;7.30;;;;;;;-145.18;100.00;60484.78;5038544;28;20090;-70
2021/11/18 07:18:42;;;;;;;19.60;7.07;;;;;;;-145.18;100.00;60484.78;5036234;28;20071;-70
2021/11/18 07:21:07;;;;;;;27.40;7.13;;;;;;;-145.18;100.00;60484.78;5030034;28;20211;-70
2021/11/18 07:23:35;;;;;;;19.00;7.00;;;;;;;-145.18;100.00;60484.78;5036670;28;20029;-70
2021/11/18 07:26:01;;;;;;;26.70;7.80;;;;;;;-145.18;100.00;60484.78;5038335;28;20029;-70
2021/11/18 07:28:30;;;;;;;21.87;7.27;;;;;;;-145.18;100.00;60484.78;5038609;28;20040;-70
2021/11/18 07:30:57;;;;;;;24.10;7.57;;;;;;;-145.18;100.00;60484.78;5038046;28;20029;-70
2021/11/18 07:33:23;;;;;;;21.63;6.93;;;;;;;-145.18;100.00;60484.78;5038211;28;20025;-70
2021/11/18 07:35:50;;;;;;;23.83;7.13;;;;;;;-145.18;100.00;60484.78;5037822;28;20162;-70
2021/11/18 07:38:17;;;;;;;18.87;6.33;;;;;;;-145.18;100.00;60484.78;5038303;28;20044;-70
2021/11/18 07:40:43;;;;;;;26.70;7.27;;;;;;;-145.18;100.00;60484.78;5037707;28;20107;-70
2021/11/18 07:43:12;;;;;;;21.27;6.37;;;;;;;-145.18;100.00;60484.78;5037878;28;20021;-70
2021/11/18 07:45:37;;;;;;;15.40;5.67;;;;;;;-145.18;100.00;60484.78;5033598;28;20060;-70
2021/11/18 07:48:03;;;;;;;19.30;6.00;;;;;;;-145.18;100.00;60484.78;5036676;28;20473;-70
2021/11/18 07:50:30;;;;;;;18.57;5.90;;;;;;;-145.18;100.00;60484.78;5038264;28;20082;-70
2021/11/18 07:52:57;;;;;;;19.40;5.77;;;;;;;-145.18;100.00;60484.78;5037865;28;20056;-70
2021/11/18 07:55:23;;;;;;;18.43;5.87;;;;;;;-145.18;100.00;60484.78;5037746;28;20107;-70
2021/11/18 07:57:49;;;;;;;24.13;6.70;;;;;;;-145.18;100.00;60484.78;5037525;28;20112;-70
2021/11/18 08:00:17;;;;;;;21.47;6.23;;;;;;;-145.18;100.00;60484.78;5037858;28;20465;-70
2021/11/18 08:02:44;;;;;;;17.17;5.60;;;;;;;-145.18;100.00;60484.78;5021467;28;20270;-70
2021/11/18 08:05:10;;;;;;;18.17;6.00;;;;;;;-145.18;100.00;60484.78;5037574;28;20319;-70
2021/11/18 08:07:36;;;;;;;17.40;6.17;;;;;;;-145.18;100.00;60484.78;5039221;28;20108;-70
2021/11/18 08:10:03;;;;;;;17.80;5.67;;;;;;;-145.18;100.00;60484.78;5041868;28;20199;-70
2021/11/18 08:12:28;;;;;;;18.87;6.20;;;;;;;-145.18;100.00;60484.78;5041624;28;20024;-70
2021/11/18 08:14:54;;;;;;;17.37;6.53;;;;;;;-145.18;100.00;60484.78;5041521;28;20098;-70
2021/11/18 08:17:19;;;;;;;20.93;6.03;;;;;;;-145.18;100.00;60484.78;5041395;28;20017;-70
2021/11/18 08:19:45;;;;;;;23.33;6.00;;;;;;;-145.18;100.00;60484.78;5041748;28;20602;-70
2021/11/18 08:22:10;;;;;;;24.27;6.33;;;;;;;-145.18;100.00;60484.78;5041382;28;20112;-70
2021/11/18 08:24:36;;;;;;;18.20;5.50;;;;;;;-145.18;100.00;60484.78;5041344;28;20029;-70
2021/11/18 08:27:02;;;;;;;19.93;5.30;;;;;;;-145.18;100.00;60484.78;5041954;28;20029;-70
2021/11/18 08:29:29;;;;;;;19.30;5.13;;;;;;;-145.18;100.00;60484.78;5041497;28;20025;-70
2021/11/18 08:31:55;;;;;;;24.87;6.13;;;;;;;-145.18;100.00;60484.78;5041424;28;20306;-70
2021/11/18 08:34:22;;;;;;;17.30;5.27;;;;;;;-145.18;100.00;60484.78;5041691;28;20028;-70
2021/11/18 08:36:50;;;;;;;15.50;6.10;;;;;;;-145.18;100.00;60484.78;5041070;28;20033;-70
2021/11/18 08:39:22;;;;;;;15.87;5.47;;;;;;;-145.18;100.00;60484.78;5041477;28;20074;-70
2021/11/18 08:41:49;;;;;;;16.13;6.10;;;;;;;-145.18;100.00;60484.78;5040931;28;20033;-70
2021/11/18 08:44:16;;;;;;;24.73;6.30;;;;;;;-145.18;100.00;60484.78;5034158;28;20220;-70
2021/11/18 08:46:43;;;;;;;14.90;5.57;;;;;;;-145.18;100.00;60484.78;5040550;28;20029;-70
2021/11/18 08:49:09;;;;;;;23.83;6.00;;;;;;;-145.18;100.00;60484.78;5040895;28;20036;-70
2021/11/18 08:51:34;;;;;;;13.30;5.50;;;;;;;-145.18;100.00;60484.78;5039857;28;20032;-70
2021/11/18 08:54:03;;;;;;;16.90;5.23;;;;;;;-145.18;100.00;60484.78;5040190;28;20091;-70
2021/11/18 08:56:29;;;;;;;15.07;5.33;;;;;;;-145.18;100.00;60484.78;5040762;28;20034;-70
2021/11/18 08:58:57;;;;;;;14.70;5.17;;;;;;;-145.18;100.00;60484.78;5040933;28;20104;-68
2021/11/18 09:01:28;;;;;;;17.07;5.50;;;;;;;-145.18;100.00;60484.78;5036872;28;20154;-68
2021/11/18 09:03:55;;;;;;;17.50;5.27;;;;;;;-145.18;100.00;60484.78;5033717;28;20494;-68
2021/11/18 09:06:22;;;;;;;19.83;5.67;;;;;;;-145.18;100.00;60484.78;5023239;28;20108;-68
2021/11/18 09:08:48;;;;;;;22.30;5.37;;;;;;;-145.18;100.00;60484.78;5020877;28;20055;-68
2021/11/18 09:11:15;;;;;;;15.70;5.70;;;;;;;-145.18;100.00;60484.78;5020499;28;20049;-68
2021/11/18 09:13:42;;;;;;;19.90;5.27;;;;;;;-145.18;100.00;60484.78;5020606;28;20017;-68
2021/11/18 09:16:08;;;;;;;14.53;5.73;;;;;;;-145.18;100.00;60484.78;5020808;28;20542;-68
2021/11/18 09:18:38;;;;;;;18.60;5.13;;;;;;;-145.18;100.00;60484.78;5019380;28;20025;-68
2021/11/18 09:21:03;;;;;;;17.83;5.53;;;;;;;-145.18;100.00;60484.78;5016966;28;20382;-67
2021/11/18 09:23:43;;;;;;;22.67;5.47;;;;;;;-145.18;100.00;60484.78;5021377;28;20037;-68
2021/11/18 09:26:11;;;;;;;15.57;4.77;;;;;;;-145.18;100.00;60484.78;5020120;28;20037;-68
2021/11/18 09:28:37;;;;;;;16.37;5.40;;;;;;;-145.18;100.00;60484.78;5018286;28;20032;-68
2021/11/18 09:31:06;;;;;;;16.23;5.50;;;;;;;-145.18;100.00;60484.78;5019898;28;20025;-68
2021/11/18 09:33:31;;;;;;;11.03;4.80;;;;;;;-145.18;100.00;60484.78;5020590;28;20457;-68
2021/11/18 09:36:01;;;;;;;17.27;4.83;;;;;;;-145.18;100.00;60484.78;5019991;28;20060;-68
2021/11/18 09:38:30;;;;;;;14.03;5.20;;;;;;;-145.18;100.00;60484.78;5020289;28;20029;-68
2021/11/18 09:41:17;;;;;;;16.30;5.40;;;;;;;-145.18;100.00;60484.78;5019200;28;20029;-68
2021/11/18 09:44:01;;;;;;;13.70;4.83;;;;;;;-145.18;100.00;60484.78;5015990;28;20021;-68
2021/11/18 09:46:39;;;;;;;15.73;4.77;;;;;;;-145.18;100.00;60484.78;5019398;28;20037;-69
2021/11/18 09:49:41;;;;;;;15.40;5.17;;;;;;;-145.18;100.00;60484.78;5020000;28;20286;-68
2021/11/18 09:52:22;;;;;;;17.42;4.63;;;;;;;-145.18;100.00;60484.78;5021709;28;20621;-68
2021/11/18 09:55:05;;;;;;;17.90;5.23;;;;;;;-145.18;100.00;60484.78;5013096;28;20189;-68
2021/11/18 09:57:33;;;;;;;15.83;5.00;;;;;;;-145.18;100.00;60484.78;5020097;28;20060;-68
2021/11/18 10:00:08;;;;;;;14.30;5.17;;;;;;;-145.18;100.00;60484.78;5019727;28;20030;-68
2021/11/18 10:02:33;;;;;;;21.57;4.93;;;;;;;-145.18;100.00;60484.78;5019670;28;20223;-68
2021/11/18 10:05:04;;;;;;;12.27;4.17;;;;;;;-145.18;100.00;60484.78;5033084;28;20323;-68
2021/11/18 10:07:57;;;;;;;16.80;4.90;;;;;;;-145.18;100.00;60484.78;5039366;28;20259;-68
2021/11/18 10:10:30;;;;;;;13.23;4.67;;;;;;;-145.18;100.00;60484.78;5039703;28;20666;-68
2021/11/18 10:13:27;;;;;;;13.67;4.10;;;;;;;-145.18;100.00;60484.78;5038940;28;20617;-68
2021/11/18 10:16:00;;;;;;;14.33;4.87;;;;;;;-145.18;100.00;60484.78;5038313;28;20041;-68
2021/11/18 10:18:29;;;;;;;15.23;4.43;;;;;;;-145.18;100.00;60484.78;5039288;28;20268;-68
2021/11/18 10:21:01;;;;;;;12.77;4.23;;;;;;;-145.18;100.00;60484.78;5039249;28;20041;-68
2021/11/18 10:23:27;;;;;;;11.27;4.30;;;;;;;-145.18;100.00;60484.78;5039154;28;20494;-68
2021/11/18 10:25:57;;;;;;;17.30;5.07;;;;;;;-145.18;100.00;60484.78;5038847;28;20021;-68
2021/11/18 10:28:22;;;;;;;13.50;5.00;;;;;;;-145.18;100.00;60484.78;5039205;28;20483;-68
2021/11/18 10:31:30;;;;;;;12.47;4.50;;;;;;;-145.18;100.00;60484.78;5038593;28;20033;-68
2021/11/18 10:34:12;;;;;;;16.63;5.83;;;;;;;-145.18;100.00;60484.78;5025588;28;20033;-69
2021/11/18 10:37:04;;;;;;;14.45;4.68;;;;;;;-145.18;100.00;60484.78;5038303;28;20025;-68
2021/11/18 10:39:40;;;;;;;14.73;4.90;;;;;;;-145.18;100.00;60484.78;5038800;28;20040;-69
2021/11/18 10:42:13;;;;;;;18.40;5.80;;;;;;;-145.18;100.00;60484.78;5041809;28;20025;-69
2021/11/18 10:45:10;;;;;;;16.60;5.03;;;;;;;-145.18;100.00;60484.78;5038918;28;20027;-69
2021/11/18 10:47:57;;;;;;;15.93;4.80;;;;;;;-145.18;100.00;60484.78;4953836;28;20035;-68
2021/11/18 10:50:41;;;;;;;12.87;4.23;;;;;;;-145.18;100.00;60484.78;4952107;28;20027;-68
2021/11/18 10:53:21;;;;;;;16.63;4.43;;;;;;;-145.18;100.00;60484.78;4953654;28;20339;-68
2021/11/18 10:56:14;;;;;;;19.93;5.13;;;;;;;-145.18;100.00;60484.78;4950899;28;20674;-68
2021/11/18 10:58:59;;;;;;;15.30;5.07;;;;;;;-145.18;100.00;60484.78;4873745;29;20334;-68
2021/11/18 11:01:25;;;;;;;18.57;5.10;;;;;;;-145.18;100.00;60484.78;4875136;29;20037;-68
2021/11/18 11:03:52;;;;;;;18.57;5.17;;;;;;;-145.18;100.00;60484.78;4883119;29;20300;-68
2021/11/18 11:06:21;;;;;;;10.73;4.63;;;;;;;-145.18;100.00;60484.78;4880324;29;20111;-68
2021/11/18 11:08:47;;;;;;;19.40;4.53;;;;;;;-145.18;100.00;60484.78;4880309;29;20047;-68